createdAt,value
2023-02-24T00:02:05.407Z,23.05
2023-02-24T00:04:16.500Z,26.92
2023-02-24T00:06:24.329Z,24.85
2023-02-24T00:08:32.292Z,25.40
2023-02-24T00:10:40.513Z,26.50
2023-02-24T00:12:49.469Z,25.42
2023-02-24T00:14:57.433Z,24.92
2023-02-24T00:17:09.180Z,24.35
2023-02-24T00:19:19.854Z,25.00
2023-02-24T00:21:28.595Z,25.52
2023-02-24T00:23:36.466Z,22.85
2023-02-24T00:25:44.300Z,22.83
2023-02-24T00:27:52.091Z,22.25
2023-02-24T00:30:01.911Z,23.63
2023-02-24T00:32:14.131Z,24.48
2023-02-24T00:34:22.261Z,23.88
2023-02-24T00:36:33.886Z,23.55
2023-02-24T00:38:45.201Z,23.00
2023-02-24T00:40:53.006Z,23.73
2023-02-24T00:43:01.106Z,23.05
2023-02-24T00:45:12.260Z,24.42
2023-02-24T00:47:23.429Z,23.90
2023-02-24T00:49:32.479Z,22.42
2023-02-24T00:51:42.859Z,23.65
2023-02-24T00:53:50.758Z,24.95
2023-02-24T00:56:02.535Z,23.55
2023-02-24T00:58:10.490Z,23.67
2023-02-24T01:00:20.336Z,23.00
2023-02-24T01:02:30.887Z,23.85
2023-02-24T01:04:40.032Z,23.48
2023-02-24T01:06:49.753Z,22.83
2023-02-24T01:08:58.865Z,24.38
2023-02-24T01:11:22.467Z,22.73
2023-02-24T01:13:31.111Z,25.60
2023-02-24T01:15:39.202Z,25.30
2023-02-24T01:17:49.789Z,25.08
2023-02-24T01:20:00.468Z,25.52
2023-02-24T01:22:11.245Z,24.10
2023-02-24T01:24:20.442Z,26.55
2023-02-24T01:26:29.172Z,23.83
2023-02-24T01:28:37.678Z,23.73
2023-02-24T01:30:45.833Z,25.92
2023-02-24T01:32:57.576Z,25.05
2023-02-24T01:35:06.559Z,26.58
2023-02-24T01:37:16.732Z,25.50
2023-02-24T01:39:26.088Z,26.52
2023-02-24T01:41:33.695Z,26.15
2023-02-24T01:44:02.091Z,26.33
2023-02-24T01:46:13.999Z,24.83
2023-02-24T01:48:24.485Z,26.67
2023-02-24T01:50:33.128Z,28.52
2023-02-24T01:52:41.760Z,25.77
2023-02-24T01:54:52.583Z,25.10
2023-02-24T01:57:01.018Z,27.38
2023-02-24T01:59:09.402Z,27.15
2023-02-24T02:01:21.169Z,25.65
2023-02-24T02:03:35.522Z,25.33
2023-02-24T02:05:48.728Z,25.58
2023-02-24T02:07:57.498Z,23.85
2023-02-24T02:10:07.148Z,25.08
2023-02-24T02:12:15.819Z,26.10
2023-02-24T02:14:29.756Z,26.63
2023-02-24T02:17:02.757Z,27.50
2023-02-24T02:19:42.566Z,28.17
2023-02-24T02:22:09.939Z,28.35
2023-02-24T02:24:50.098Z,27.55
2023-02-24T02:27:21.265Z,29.30
2023-02-24T02:30:03.289Z,30.40
2023-02-24T02:32:33.245Z,29.00
2023-02-24T02:34:57.478Z,28.70
2023-02-24T02:37:12.109Z,28.58
2023-02-24T02:39:28.630Z,28.58
2023-02-24T02:41:45.343Z,26.98
2023-02-24T02:43:57.323Z,26.80
2023-02-24T02:46:14.915Z,27.67
2023-02-24T02:48:28.189Z,29.65
2023-02-24T02:50:47.303Z,28.90
2023-02-24T02:53:00.850Z,29.13
2023-02-24T02:55:14.315Z,27.73
2023-02-24T02:57:26.087Z,28.00
2023-02-24T02:59:37.977Z,26.73
2023-02-24T03:01:47.445Z,26.40
2023-02-24T03:03:58.990Z,28.40
2023-02-24T03:06:13.679Z,27.02
2023-02-24T03:08:29.683Z,27.58
2023-02-24T03:10:39.879Z,30.55
2023-02-24T03:12:52.479Z,31.17
2023-02-24T03:15:05.051Z,31.27
2023-02-24T03:17:21.625Z,29.33
2023-02-24T03:19:37.422Z,34.22
2023-02-24T03:21:53.237Z,30.95
2023-02-24T03:24:02.090Z,31.58
2023-02-24T03:26:19.077Z,29.15
2023-02-24T03:28:35.900Z,31.80
2023-02-24T03:30:49.804Z,32.58
2023-02-24T03:33:02.507Z,33.28
2023-02-24T03:35:19.770Z,31.30
2023-02-24T03:37:33.670Z,32.10
2023-02-24T03:39:41.819Z,33.55
2023-02-24T03:42:07.305Z,29.88
2023-02-24T03:44:16.560Z,31.65
2023-02-24T03:46:24.605Z,31.15
2023-02-24T03:48:33.074Z,31.15
2023-02-24T03:50:42.634Z,29.02
2023-02-24T03:53:33.840Z,31.33
2023-02-24T03:55:59.854Z,30.08
2023-02-24T03:58:21.489Z,30.60
2023-02-24T04:00:38.609Z,29.15
2023-02-24T04:02:49.858Z,28.10
2023-02-24T04:05:06.655Z,27.73
2023-02-24T04:07:37.536Z,30.67
2023-02-24T04:09:53.333Z,28.80
2023-02-24T04:12:09.551Z,29.20
2023-02-24T04:14:26.328Z,30.02
2023-02-24T04:16:40.968Z,26.95
2023-02-24T04:18:53.932Z,26.35
2023-02-24T04:21:06.144Z,28.25
2023-02-24T04:23:19.895Z,28.38
2023-02-24T04:25:31.354Z,27.80
2023-02-24T04:27:39.764Z,27.10
2023-02-24T04:29:58.110Z,27.98
2023-02-24T04:32:10.496Z,26.90
2023-02-24T04:34:20.392Z,27.60
2023-02-24T04:36:29.515Z,27.60
2023-02-24T04:38:38.445Z,27.35
2023-02-24T04:40:49.980Z,26.70
2023-02-24T04:42:58.113Z,26.20
2023-02-24T04:45:10.185Z,27.10
2023-02-24T04:47:18.006Z,27.00
2023-02-24T04:49:26.212Z,27.52
2023-02-24T04:51:34.144Z,30.60
2023-02-24T04:53:42.353Z,28.98
2023-02-24T04:55:53.503Z,30.27
2023-02-24T04:58:02.525Z,33.47
2023-02-24T05:00:20.995Z,29.67
2023-02-24T05:02:29.173Z,29.90
2023-02-24T05:04:39.104Z,30.88
2023-02-24T05:06:47.600Z,31.65
2023-02-24T05:08:55.374Z,33.80
2023-02-24T05:11:07.040Z,33.65
2023-02-24T05:13:17.198Z,34.40
2023-02-24T05:15:31.336Z,33.25
2023-02-24T05:17:39.920Z,34.08
2023-02-24T05:20:00.129Z,30.00
2023-02-24T05:22:10.620Z,31.60
2023-02-24T05:24:18.903Z,33.35
2023-02-24T05:26:32.159Z,32.22
2023-02-24T05:28:40.958Z,30.33
2023-02-24T05:30:48.956Z,31.30
2023-02-24T05:32:56.846Z,33.95
2023-02-24T05:35:05.604Z,32.53
2023-02-24T05:37:16.749Z,31.45
2023-02-24T05:39:26.724Z,32.67
2023-02-24T05:41:38.900Z,31.67
2023-02-24T05:43:48.539Z,30.55
2023-02-24T05:45:57.459Z,30.55
2023-02-24T05:48:06.001Z,30.65
2023-02-24T05:50:16.013Z,30.75
2023-02-24T05:52:24.208Z,28.88
2023-02-24T05:54:45.861Z,29.23
2023-02-24T05:56:57.158Z,32.38
2023-02-24T05:59:09.045Z,30.60
2023-02-24T06:01:19.448Z,31.27
2023-02-24T06:03:31.236Z,28.80
2023-02-24T06:05:39.864Z,30.27
2023-02-24T06:07:47.674Z,28.80
2023-02-24T06:09:57.486Z,31.50
2023-02-24T06:12:08.096Z,31.75
2023-02-24T06:14:16.190Z,31.67
2023-02-24T06:16:26.141Z,30.92
2023-02-24T06:18:34.112Z,31.27
2023-02-24T06:20:42.134Z,30.67
2023-02-24T06:22:54.310Z,32.97
2023-02-24T06:25:02.164Z,31.45
2023-02-24T06:27:18.021Z,30.20
2023-02-24T06:29:29.811Z,30.23
2023-02-24T06:31:37.838Z,30.52
2023-02-24T06:33:45.933Z,30.98
2023-02-24T06:35:53.877Z,31.90
2023-02-24T06:38:02.268Z,30.73
2023-02-24T06:40:16.050Z,31.02
2023-02-24T06:42:29.661Z,29.80
2023-02-24T06:44:39.208Z,30.55
2023-02-24T06:46:46.931Z,30.80
2023-02-24T06:48:54.887Z,30.90
2023-02-24T06:51:06.212Z,30.83
2023-02-24T06:53:17.053Z,31.73
2023-02-24T06:55:31.153Z,30.88
2023-02-24T06:57:44.062Z,32.15
2023-02-24T06:59:52.422Z,32.13
2023-02-24T07:02:03.534Z,31.00
2023-02-24T07:04:21.191Z,31.90
2023-02-24T07:06:29.611Z,30.35
2023-02-24T07:08:37.418Z,31.65
2023-02-24T07:10:45.219Z,32.15
2023-02-24T07:12:56.152Z,32.60
2023-02-24T07:15:05.333Z,29.90
2023-02-24T07:17:14.925Z,29.10
2023-02-24T07:19:25.179Z,32.70
2023-02-24T07:21:39.688Z,30.10
2023-02-24T07:23:49.923Z,29.42
2023-02-24T07:25:58.692Z,30.20
2023-02-24T07:28:09.117Z,29.60
2023-02-24T07:30:18.405Z,29.80
2023-02-24T07:32:26.301Z,29.85
2023-02-24T07:34:35.122Z,27.15
2023-02-24T07:36:49.442Z,30.70
2023-02-24T07:38:58.280Z,28.48
2023-02-24T07:41:06.961Z,27.00
2023-02-24T07:43:17.439Z,30.90
2023-02-24T07:45:27.792Z,29.75
2023-02-24T07:47:36.009Z,30.95
2023-02-24T07:49:43.917Z,30.92
2023-02-24T07:51:57.754Z,29.75
2023-02-24T07:54:05.901Z,30.30
2023-02-24T07:56:17.944Z,31.90
2023-02-24T07:58:28.628Z,31.67
2023-02-24T08:00:50.773Z,30.67
2023-02-24T08:03:00.681Z,31.98
2023-02-24T08:05:09.349Z,33.05
2023-02-24T08:07:17.176Z,32.17
2023-02-24T08:09:40.021Z,30.30
2023-02-24T08:11:52.448Z,30.83
2023-02-24T08:14:03.087Z,30.20
2023-02-24T08:16:12.370Z,31.27
2023-02-24T08:18:20.353Z,32.47
2023-02-24T08:20:30.215Z,30.30
2023-02-24T08:22:38.310Z,31.45
2023-02-24T08:24:50.218Z,28.20
2023-02-24T08:27:06.706Z,30.30
2023-02-24T08:29:20.595Z,30.63
2023-02-24T08:31:28.731Z,29.80
2023-02-24T08:33:37.478Z,31.17
2023-02-24T08:35:45.998Z,28.92
2023-02-24T08:38:10.546Z,31.38
2023-02-24T08:40:38.148Z,31.65
2023-02-24T08:42:46.695Z,31.60
2023-02-24T08:44:58.327Z,32.97
2023-02-24T08:47:07.768Z,31.65
2023-02-24T08:49:17.328Z,32.67
2023-02-24T08:51:29.185Z,30.52
2023-02-24T08:53:40.670Z,32.72
2023-02-24T08:55:51.921Z,31.48
2023-02-24T08:58:01.989Z,32.45
2023-02-24T09:00:28.272Z,34.35
2023-02-24T09:02:40.598Z,33.10
2023-02-24T09:04:49.749Z,32.17
2023-02-24T09:07:10.660Z,33.45
2023-02-24T09:09:21.441Z,32.42
2023-02-24T09:11:29.349Z,32.20
2023-02-24T09:13:44.007Z,31.30
2023-02-24T09:15:54.760Z,32.20
2023-02-24T09:18:07.699Z,32.58
2023-02-24T09:20:32.775Z,27.17
2023-02-24T09:22:52.786Z,28.30
2023-02-24T09:25:14.354Z,25.67
2023-02-24T09:27:29.552Z,24.10
2023-02-24T09:29:49.373Z,23.00
2023-02-24T09:32:04.808Z,21.75
2023-02-24T09:34:18.793Z,22.55
2023-02-24T09:36:30.929Z,22.33
2023-02-24T09:38:52.038Z,23.40
2023-02-24T09:41:18.464Z,21.95
2023-02-24T09:43:28.298Z,21.63
2023-02-24T09:45:36.310Z,20.00
2023-02-24T09:47:57.181Z,20.90
2023-02-24T09:50:16.242Z,19.20
2023-02-24T09:52:39.872Z,19.92
2023-02-24T09:55:12.548Z,20.90
2023-02-24T09:57:26.864Z,18.85
2023-02-24T10:00:01.473Z,20.42
2023-02-24T10:02:28.344Z,18.20
2023-02-24T10:05:07.379Z,18.67
2023-02-24T10:07:18.509Z,18.98
2023-02-24T10:09:34.708Z,17.52
2023-02-24T10:11:53.734Z,17.95
2023-02-24T10:14:06.421Z,21.15
2023-02-24T10:16:24.204Z,22.40
2023-02-24T10:18:36.072Z,24.25
2023-02-24T10:20:49.507Z,25.88
2023-02-24T10:23:02.542Z,25.35
2023-02-24T10:25:28.251Z,24.60
2023-02-24T10:27:44.447Z,24.30
2023-02-24T10:30:05.869Z,26.00
2023-02-24T10:32:31.904Z,26.58
2023-02-24T10:34:39.856Z,24.70
2023-02-24T10:36:51.270Z,26.90
2023-02-24T10:39:08.569Z,24.52
2023-02-24T10:41:17.880Z,25.77
2023-02-24T10:43:33.865Z,25.05
2023-02-24T10:45:45.443Z,26.70
2023-02-24T10:47:59.540Z,24.25
2023-02-24T10:50:12.819Z,25.27
2023-02-24T10:52:37.320Z,22.85
2023-02-24T10:55:05.369Z,22.40
2023-02-24T10:57:42.589Z,23.17
2023-02-24T11:00:13.533Z,21.55
2023-02-24T11:02:30.040Z,22.65
2023-02-24T11:05:04.694Z,20.92
2023-02-24T11:07:24.907Z,18.50
2023-02-24T11:09:44.030Z,16.67
2023-02-24T11:12:04.407Z,17.20
2023-02-24T11:14:32.316Z,16.05
2023-02-24T11:17:03.695Z,14.65
2023-02-24T11:19:14.356Z,14.07
2023-02-24T11:21:22.801Z,13.63
2023-02-24T11:23:36.364Z,14.32
2023-02-24T11:25:51.893Z,13.73
2023-02-24T11:28:00.741Z,13.30
2023-02-24T11:30:27.956Z,14.57
2023-02-24T11:32:49.831Z,14.98
2023-02-24T11:35:05.842Z,16.35
2023-02-24T11:37:24.511Z,14.82
2023-02-24T11:39:47.503Z,15.25
2023-02-24T11:42:01.655Z,15.98
2023-02-24T11:44:28.822Z,15.15
2023-02-24T11:46:41.870Z,16.60
2023-02-24T11:48:57.093Z,16.63
2023-02-24T11:51:08.087Z,17.83
2023-02-24T11:53:28.246Z,18.77
2023-02-24T11:55:42.599Z,18.60
2023-02-24T11:57:57.425Z,19.20
2023-02-24T12:00:13.487Z,17.92
2023-02-24T12:02:30.315Z,19.40
2023-02-24T12:04:43.256Z,19.77
2023-02-24T12:06:57.071Z,19.02
2023-02-24T12:09:15.716Z,19.35
2023-02-24T12:11:35.729Z,17.02
2023-02-24T12:13:53.219Z,20.40
2023-02-24T12:16:08.024Z,20.30
2023-02-24T12:18:23.350Z,19.92
2023-02-24T12:20:35.912Z,20.35
2023-02-24T12:22:50.714Z,19.27
2023-02-24T12:24:58.866Z,19.25
2023-02-24T12:27:16.429Z,19.20
2023-02-24T12:29:42.702Z,19.02
2023-02-24T12:32:00.688Z,18.70
2023-02-24T12:34:15.736Z,19.55
2023-02-24T12:36:38.334Z,17.90
2023-02-24T12:38:56.077Z,18.85
2023-02-24T12:41:20.258Z,19.27
2023-02-24T12:43:38.311Z,18.13
2023-02-24T12:45:55.117Z,17.42
2023-02-24T12:48:12.046Z,18.52
2023-02-24T12:50:30.930Z,18.88
2023-02-24T12:52:50.332Z,17.25
2023-02-24T12:55:09.103Z,18.10
2023-02-24T12:57:26.651Z,18.73
2023-02-24T12:59:41.343Z,17.33
2023-02-24T13:02:01.431Z,17.27
2023-02-24T13:04:32.424Z,18.88
2023-02-24T13:06:50.969Z,17.92
2023-02-24T13:09:06.290Z,16.83
2023-02-24T13:11:25.659Z,14.38
2023-02-24T13:13:40.274Z,12.95
2023-02-24T13:15:56.751Z,14.02
2023-02-24T13:18:07.408Z,13.50
2023-02-24T13:20:17.354Z,13.40
2023-02-24T13:22:32.887Z,12.55
2023-02-24T13:24:44.226Z,12.93
2023-02-24T13:26:52.333Z,12.77
2023-02-24T13:29:04.073Z,13.13
2023-02-24T13:31:14.797Z,12.02
2023-02-24T13:33:33.802Z,12.05
2023-02-24T13:35:41.551Z,10.85
2023-02-24T13:37:51.687Z,12.73
2023-02-24T13:39:59.634Z,11.43
2023-02-24T13:42:09.518Z,11.35
2023-02-24T13:44:30.685Z,11.32
2023-02-24T13:46:57.552Z,10.85
2023-02-24T13:49:39.944Z,11.52
2023-02-24T13:52:03.386Z,11.57
2023-02-24T13:54:26.488Z,10.20
2023-02-24T13:56:42.290Z,9.57
2023-02-24T13:59:10.663Z,10.18
2023-02-24T14:01:21.120Z,12.77
2023-02-24T14:03:31.702Z,13.75
2023-02-24T14:05:45.758Z,16.02
2023-02-24T14:07:56.359Z,15.18
2023-02-24T14:10:07.535Z,14.95
2023-02-24T14:12:43.620Z,12.77
2023-02-24T14:14:53.712Z,12.43
2023-02-24T14:17:04.640Z,13.07
2023-02-24T14:19:17.909Z,11.90
2023-02-24T14:21:30.523Z,12.95
2023-02-24T14:23:38.696Z,12.77
2023-02-24T14:25:46.887Z,13.35
2023-02-24T14:27:57.817Z,13.13
2023-02-24T14:30:05.953Z,14.52
2023-02-24T14:32:22.895Z,13.40
2023-02-24T14:34:34.721Z,15.77
2023-02-24T14:36:49.323Z,17.60
2023-02-24T14:39:08.103Z,15.88
2023-02-24T14:41:23.800Z,17.55
2023-02-24T14:43:32.512Z,15.73
2023-02-24T14:45:51.724Z,18.15
2023-02-24T14:48:00.087Z,19.45
2023-02-24T14:50:08.984Z,19.25
2023-02-24T14:52:30.797Z,17.45
2023-02-24T14:54:46.572Z,18.30
2023-02-24T14:56:54.794Z,18.52
2023-02-24T14:59:06.463Z,18.58
2023-02-24T15:01:24.261Z,19.67
2023-02-24T15:03:35.761Z,18.05
2023-02-24T15:05:46.399Z,18.52
2023-02-24T15:07:58.593Z,17.13
2023-02-24T15:10:08.504Z,16.92
2023-02-24T15:12:24.966Z,16.85
2023-02-24T15:14:34.847Z,15.80
2023-02-24T15:16:47.039Z,15.65
2023-02-24T15:18:56.208Z,17.23
2023-02-24T15:21:05.189Z,17.02
2023-02-24T15:23:31.841Z,16.13
2023-02-24T15:25:47.753Z,17.05
2023-02-24T15:27:58.453Z,15.35
2023-02-24T15:30:09.788Z,16.10
2023-02-24T15:32:20.766Z,17.05
2023-02-24T15:34:31.720Z,16.20
2023-02-24T15:36:39.893Z,15.48
2023-02-24T15:38:54.816Z,16.80
2023-02-24T15:41:05.202Z,17.70
2023-02-24T15:43:14.231Z,17.08
2023-02-24T15:45:28.953Z,15.63
2023-02-24T15:47:45.382Z,13.98
2023-02-24T15:49:53.246Z,15.95
2023-02-24T15:52:04.325Z,15.48
2023-02-24T15:54:19.576Z,16.27
2023-02-24T15:56:27.473Z,15.80
2023-02-24T15:58:43.254Z,14.30
2023-02-24T16:00:54.472Z,15.35
2023-02-24T16:03:02.693Z,14.23
2023-02-24T16:05:12.781Z,15.90
2023-02-24T16:07:24.416Z,14.38
2023-02-24T16:09:39.639Z,14.38
2023-02-24T16:11:50.424Z,14.48
2023-02-24T16:14:00.647Z,15.70
2023-02-24T16:16:09.411Z,15.20
2023-02-24T16:18:22.528Z,15.20
2023-02-24T16:20:33.678Z,14.30
2023-02-24T16:22:41.722Z,15.82
2023-02-24T16:24:52.728Z,15.70
2023-02-24T16:27:01.057Z,15.07
2023-02-24T16:29:11.761Z,16.50
2023-02-24T16:31:20.298Z,19.13
2023-02-24T16:33:29.185Z,20.38
2023-02-24T16:35:38.968Z,17.67
2023-02-24T16:37:49.336Z,16.23
2023-02-24T16:40:01.552Z,15.95
2023-02-24T16:42:10.190Z,13.75
2023-02-24T16:44:19.587Z,11.80
2023-02-24T16:46:41.454Z,12.10
2023-02-24T16:48:51.222Z,11.10
2023-02-24T16:50:59.284Z,12.18
2023-02-24T16:53:07.388Z,12.55
2023-02-24T16:55:18.432Z,11.80
2023-02-24T16:57:26.200Z,11.75
2023-02-24T16:59:34.574Z,12.18
2023-02-24T17:01:42.848Z,11.68
2023-02-24T17:03:53.137Z,12.55
2023-02-24T17:06:01.198Z,12.73
2023-02-24T17:08:09.237Z,13.43
2023-02-24T17:10:20.931Z,12.30
2023-02-24T17:12:28.804Z,12.18
2023-02-24T17:14:36.928Z,12.73
2023-02-24T17:16:44.912Z,11.80
2023-02-24T17:18:53.070Z,12.07
2023-02-24T17:21:01.057Z,11.70
2023-02-24T17:23:09.300Z,12.30
2023-02-24T17:25:23.789Z,11.40
2023-02-24T17:27:31.838Z,12.00
2023-02-24T17:29:39.718Z,11.45
2023-02-24T17:31:47.805Z,12.18
2023-02-24T17:33:55.698Z,12.57
2023-02-24T17:36:03.978Z,13.88
2023-02-24T17:38:14.551Z,14.73
2023-02-24T17:40:25.870Z,15.52
2023-02-24T17:42:33.700Z,12.68
2023-02-24T17:44:41.611Z,14.40
2023-02-24T17:46:49.619Z,14.32
2023-02-24T17:48:57.667Z,13.70
2023-02-24T17:51:05.561Z,13.63
2023-02-24T17:53:14.105Z,13.88
2023-02-24T17:55:24.693Z,13.40
2023-02-24T17:57:34.351Z,13.05
2023-02-24T17:59:46.103Z,11.73
2023-02-24T18:01:54.038Z,11.20
2023-02-24T18:04:02.273Z,11.43
2023-02-24T18:06:13.357Z,8.00
2023-02-24T18:08:21.523Z,7.70
2023-02-24T18:10:32.298Z,8.77
2023-02-24T18:12:40.392Z,11.73
2023-02-24T18:14:59.109Z,12.38
2023-02-24T18:17:14.484Z,14.15
2023-02-24T18:19:22.459Z,10.93
2023-02-24T18:21:30.517Z,15.75
2023-02-24T18:23:40.989Z,9.73
2023-02-24T18:25:51.473Z,8.32
2023-02-24T18:27:59.801Z,8.68
2023-02-24T18:30:10.269Z,6.90
2023-02-24T18:32:18.726Z,7.40
2023-02-24T18:34:26.979Z,6.10
2023-02-24T18:36:35.095Z,5.50
2023-02-24T18:38:43.272Z,6.88
2023-02-24T18:41:00.694Z,5.25
2023-02-24T18:43:08.895Z,5.30
2023-02-24T18:45:17.150Z,4.30
2023-02-24T18:47:25.227Z,4.30
2023-02-24T18:49:33.722Z,4.05
2023-02-24T18:51:42.672Z,4.30
2023-02-24T18:53:52.736Z,4.07
2023-02-24T18:56:11.619Z,3.15
2023-02-24T18:58:19.972Z,4.45
2023-02-24T19:00:29.396Z,3.90
2023-02-24T19:02:39.177Z,2.80
2023-02-24T19:04:48.472Z,3.40
2023-02-24T19:06:56.689Z,3.28
2023-02-24T19:09:09.935Z,3.20
2023-02-24T19:11:22.690Z,2.55
2023-02-24T19:13:30.867Z,3.10
2023-02-24T19:15:40.189Z,3.17
2023-02-24T19:17:50.319Z,3.20
2023-02-24T19:19:58.818Z,2.80
2023-02-24T19:22:09.822Z,3.67
2023-02-24T19:24:18.591Z,4.18
2023-02-24T19:26:30.842Z,3.78
2023-02-24T19:28:39.311Z,4.82
2023-02-24T19:30:48.075Z,5.40
2023-02-24T19:32:56.203Z,6.90
2023-02-24T19:35:04.538Z,7.88
2023-02-24T19:37:12.916Z,7.78
2023-02-24T19:39:22.681Z,8.55
2023-02-24T19:41:34.379Z,10.15
2023-02-24T19:43:44.846Z,9.82
2023-02-24T19:45:55.867Z,10.90
2023-02-24T19:48:06.672Z,9.63
2023-02-24T19:50:18.578Z,13.27
2023-02-24T19:52:27.189Z,10.80
2023-02-24T19:54:46.756Z,13.38
2023-02-24T19:57:00.592Z,12.60
2023-02-24T19:59:10.481Z,13.20
2023-02-24T20:01:18.590Z,14.18
2023-02-24T20:03:28.399Z,14.10
2023-02-24T20:05:38.992Z,14.15
2023-02-24T20:07:47.148Z,13.18
2023-02-24T20:09:55.153Z,14.57
2023-02-24T20:12:05.938Z,13.73
2023-02-24T20:14:15.451Z,12.90
2023-02-24T20:16:26.244Z,12.75
2023-02-24T20:18:34.523Z,13.60
2023-02-24T20:20:42.542Z,14.05
2023-02-24T20:22:50.560Z,12.98
2023-02-24T20:25:00.640Z,14.00
2023-02-24T20:27:12.930Z,13.40
2023-02-24T20:29:24.887Z,15.13
2023-02-24T20:31:33.029Z,15.00
2023-02-24T20:33:43.180Z,14.20
2023-02-24T20:35:51.543Z,13.30
2023-02-24T20:37:59.446Z,14.50
2023-02-24T20:40:09.069Z,15.00
2023-02-24T20:42:19.564Z,15.80
2023-02-24T20:44:27.593Z,14.32
2023-02-24T20:46:38.419Z,14.40
2023-02-24T20:48:46.953Z,14.93
2023-02-24T20:50:55.421Z,14.02
2023-02-24T20:53:04.383Z,14.82
2023-02-24T20:55:13.585Z,14.27
2023-02-24T20:57:25.175Z,14.07
2023-02-24T20:59:33.069Z,14.70
2023-02-24T21:01:42.156Z,14.90
2023-02-24T21:03:50.552Z,13.30
2023-02-24T21:06:09.173Z,13.07
2023-02-24T21:08:17.855Z,14.18
2023-02-24T21:10:26.081Z,15.07
2023-02-24T21:12:36.881Z,14.70
2023-02-24T21:14:45.521Z,14.70
2023-02-24T21:16:53.529Z,14.43
2023-02-24T21:19:01.443Z,14.75
2023-02-24T21:21:10.425Z,14.15
2023-02-24T21:23:18.744Z,13.85
2023-02-24T21:25:28.214Z,14.88
2023-02-24T21:27:39.715Z,13.98
2023-02-24T21:29:49.312Z,9.20
2023-02-24T21:31:58.174Z,7.10
2023-02-24T21:34:06.661Z,6.75
2023-02-24T21:36:17.166Z,6.70
2023-02-24T21:38:25.116Z,7.07
2023-02-24T21:40:33.735Z,7.18
2023-02-24T21:42:47.099Z,7.40
2023-02-24T21:44:59.775Z,6.45
2023-02-24T21:47:08.538Z,6.35
2023-02-24T21:49:18.330Z,4.32
2023-02-24T21:51:27.973Z,3.97
2023-02-24T21:53:39.641Z,3.55
2023-02-24T21:55:47.628Z,3.38
2023-02-24T21:57:58.241Z,4.03
2023-02-24T22:00:12.545Z,3.65
2023-02-24T22:02:22.083Z,3.72
2023-02-24T22:04:30.102Z,4.82
2023-02-24T22:06:41.122Z,4.65
2023-02-24T22:08:49.238Z,4.57
2023-02-24T22:11:01.739Z,4.00
2023-02-24T22:13:12.209Z,4.40
2023-02-24T22:15:20.599Z,5.43
2023-02-24T22:17:29.389Z,4.88
2023-02-24T22:19:37.443Z,4.28
2023-02-24T22:21:45.790Z,5.88
2023-02-24T22:23:55.376Z,5.90
2023-02-24T22:26:06.192Z,7.05
2023-02-24T22:28:17.066Z,6.93
2023-02-24T22:30:25.731Z,6.45
2023-02-24T22:32:34.072Z,6.60
2023-02-24T22:34:42.286Z,7.68
2023-02-24T22:36:53.810Z,6.95
2023-02-24T22:39:14.975Z,6.15
2023-02-24T22:41:25.611Z,6.32
2023-02-24T22:43:36.217Z,6.60
2023-02-24T22:45:43.973Z,6.25
2023-02-24T22:47:51.980Z,6.50
2023-02-24T22:50:00.011Z,5.57
2023-02-24T22:52:07.911Z,5.72
2023-02-24T22:54:15.767Z,6.40
2023-02-24T22:56:26.462Z,6.80
2023-02-24T22:58:37.693Z,7.63
2023-02-24T23:00:47.195Z,7.18
2023-02-24T23:02:56.550Z,7.22
2023-02-24T23:05:04.615Z,7.13
2023-02-24T23:07:14.301Z,5.75
2023-02-24T23:09:22.561Z,5.05
2023-02-24T23:11:32.739Z,6.05
2023-02-24T23:13:45.081Z,4.68
2023-02-24T23:15:53.435Z,5.68
2023-02-24T23:18:02.663Z,5.68
2023-02-24T23:20:14.479Z,5.68
2023-02-24T23:22:22.482Z,5.78
2023-02-24T23:24:31.130Z,5.80
2023-02-24T23:26:40.689Z,6.20
2023-02-24T23:28:51.171Z,6.35
2023-02-24T23:30:59.250Z,5.97
2023-02-24T23:33:08.689Z,5.85
2023-02-24T23:35:17.114Z,6.70
2023-02-24T23:37:25.000Z,5.30
2023-02-24T23:39:33.078Z,6.05
2023-02-24T23:41:41.594Z,6.57
2023-02-24T23:43:52.211Z,5.57
2023-02-24T23:46:00.112Z,6.07
2023-02-24T23:48:08.380Z,6.40
2023-02-24T23:50:16.399Z,7.15
2023-02-24T23:52:24.254Z,6.30
2023-02-24T23:54:43.808Z,5.95
2023-02-24T23:56:52.286Z,5.95
2023-02-24T23:59:02.964Z,5.72
